createdAt,value
2019-03-23T00:01:58.988Z,79.23
2019-03-23T00:04:28.563Z,71.70
2019-03-23T00:06:58.215Z,69.73
2019-03-23T00:09:27.697Z,80.10
2019-03-23T00:11:57.275Z,73.83
2019-03-23T00:14:27.002Z,70.37
2019-03-23T00:16:56.505Z,69.27
2019-03-23T00:19:26.103Z,68.20
2019-03-23T00:21:55.543Z,68.30
2019-03-23T00:24:24.951Z,69.43
2019-03-23T00:26:54.482Z,72.10
2019-03-23T00:29:23.996Z,74.40
2019-03-23T00:31:53.584Z,72.97
2019-03-23T00:34:22.988Z,73.20
2019-03-23T00:36:52.511Z,73.80
2019-03-23T00:39:22.488Z,71.93
2019-03-23T00:41:52.067Z,67.47
2019-03-23T00:44:21.491Z,75.13
2019-03-23T00:46:51.030Z,73.13
2019-03-23T00:49:20.589Z,72.40
2019-03-23T00:51:50.132Z,75.97
2019-03-23T00:54:19.534Z,75.57
2019-03-23T00:56:49.138Z,65.80
2019-03-23T00:59:18.694Z,71.97
2019-03-23T01:01:48.203Z,71.43
2019-03-23T01:04:17.777Z,82.60
2019-03-23T01:06:52.153Z,78.27
2019-03-23T01:09:18.767Z,79.77
2019-03-23T01:11:48.398Z,82.17
2019-03-23T01:14:17.951Z,77.27
2019-03-23T01:16:47.463Z,76.07
2019-03-23T01:19:17.019Z,74.77
2019-03-23T01:21:46.525Z,83.67
2019-03-23T01:24:16.159Z,78.27
2019-03-23T01:26:46.204Z,74.00
2019-03-23T01:29:15.762Z,68.90
2019-03-23T01:31:45.675Z,64.13
2019-03-23T01:34:15.156Z,71.07
2019-03-23T01:36:44.659Z,70.13
2019-03-23T01:39:14.109Z,77.63
2019-03-23T01:41:43.727Z,80.63
2019-03-23T01:44:13.334Z,73.70
2019-03-23T01:46:42.908Z,76.63
2019-03-23T01:49:12.508Z,84.87
2019-03-23T01:51:42.121Z,71.77
2019-03-23T01:54:11.680Z,73.47
2019-03-23T01:56:41.315Z,76.53
2019-03-23T01:59:10.845Z,78.67
2019-03-23T02:01:40.373Z,75.50
2019-03-23T02:04:09.999Z,76.90
2019-03-23T02:06:39.658Z,75.83
2019-03-23T02:09:09.268Z,80.80
2019-03-23T02:11:38.741Z,77.70
2019-03-23T02:14:08.327Z,79.43
2019-03-23T02:16:37.939Z,73.60
2019-03-23T02:19:07.603Z,76.47
2019-03-23T02:21:37.189Z,80.13
2019-03-23T02:24:06.768Z,74.90
2019-03-23T02:26:36.272Z,84.27
2019-03-23T02:29:05.917Z,76.67
2019-03-23T02:31:35.428Z,80.80
2019-03-23T02:34:04.957Z,73.77
2019-03-23T02:36:34.608Z,75.63
2019-03-23T02:39:05.336Z,74.27
2019-03-23T02:41:34.901Z,80.73
2019-03-23T02:44:04.536Z,72.27
2019-03-23T02:46:34.216Z,67.07
2019-03-23T02:49:03.807Z,71.87
2019-03-23T02:51:33.478Z,74.20
2019-03-23T02:54:03.024Z,82.07
2019-03-23T02:56:32.601Z,78.13
2019-03-23T02:59:02.298Z,76.70
2019-03-23T03:01:31.877Z,78.87
2019-03-23T03:04:01.451Z,72.77
2019-03-23T03:06:31.088Z,73.80
2019-03-23T03:09:00.734Z,71.20
2019-03-23T03:11:30.254Z,74.93
2019-03-23T03:13:59.809Z,73.37
2019-03-23T03:16:29.464Z,72.40
2019-03-23T03:18:58.969Z,69.20
2019-03-23T03:21:28.514Z,71.77
2019-03-23T03:23:58.040Z,75.30
2019-03-23T03:26:27.673Z,64.37
2019-03-23T03:28:57.203Z,66.00
2019-03-23T03:31:26.838Z,60.83
2019-03-23T03:33:56.429Z,58.97
2019-03-23T03:36:26.149Z,62.40
2019-03-23T03:38:55.571Z,58.77
2019-03-23T03:41:25.111Z,56.40
2019-03-23T03:43:54.657Z,57.97
2019-03-23T03:46:24.296Z,55.23
2019-03-23T03:48:53.848Z,54.37
2019-03-23T03:51:23.447Z,53.00
2019-03-23T03:53:52.916Z,58.47
2019-03-23T03:56:22.426Z,55.83
2019-03-23T03:58:51.940Z,58.10
2019-03-23T04:01:21.458Z,55.10
2019-03-23T04:03:50.975Z,50.90
2019-03-23T04:06:20.740Z,57.43
2019-03-23T04:08:50.561Z,61.20
2019-03-23T04:11:20.093Z,58.20
2019-03-23T04:13:49.841Z,51.27
2019-03-23T04:16:19.412Z,54.73
2019-03-23T04:18:49.183Z,51.23
2019-03-23T04:21:18.836Z,52.03
2019-03-23T04:23:48.493Z,54.67
2019-03-23T04:26:18.023Z,51.10
2019-03-23T04:28:47.634Z,51.90
2019-03-23T04:31:17.336Z,47.63
2019-03-23T04:33:46.989Z,48.33
2019-03-23T04:36:16.442Z,50.87
2019-03-23T04:38:45.991Z,48.80
2019-03-23T04:41:15.423Z,51.03
2019-03-23T04:43:44.975Z,49.67
2019-03-23T04:46:14.471Z,44.60
2019-03-23T04:48:43.907Z,46.73
2019-03-23T04:51:13.461Z,44.67
2019-03-23T04:53:43.012Z,49.47
2019-03-23T04:56:12.571Z,46.57
2019-03-23T04:58:42.007Z,48.80
2019-03-23T05:01:11.505Z,49.07
2019-03-23T05:03:40.991Z,50.80
2019-03-23T05:06:10.527Z,47.43
2019-03-23T05:08:40.038Z,47.10
2019-03-23T05:11:09.494Z,45.53
2019-03-23T05:13:39.078Z,42.17
2019-03-23T05:16:08.621Z,46.60
2019-03-23T05:18:38.207Z,43.80
2019-03-23T05:21:07.759Z,43.77
2019-03-23T05:23:39.000Z,44.77
2019-03-23T05:26:08.513Z,41.70
2019-03-23T05:28:38.026Z,37.97
2019-03-23T05:31:07.559Z,39.47
2019-03-23T05:33:37.191Z,60.90
2019-03-23T05:36:06.765Z,36.63
2019-03-23T05:38:43.917Z,33.43
2019-03-23T05:41:07.407Z,34.87
2019-03-23T05:43:36.867Z,31.20
2019-03-23T05:46:06.448Z,33.13
2019-03-23T05:48:35.941Z,31.03
2019-03-23T05:51:05.582Z,33.43
2019-03-23T05:53:35.228Z,36.40
2019-03-23T05:56:04.749Z,30.47
2019-03-23T05:58:34.247Z,30.53
2019-03-23T06:01:04.007Z,31.90
2019-03-23T06:03:33.686Z,31.57
2019-03-23T06:06:03.277Z,32.20
2019-03-23T06:08:32.787Z,31.40
2019-03-23T06:11:02.282Z,33.20
2019-03-23T06:13:31.883Z,38.03
2019-03-23T06:16:01.534Z,36.20
2019-03-23T06:18:31.179Z,35.27
2019-03-23T06:21:00.718Z,36.43
2019-03-23T06:23:30.261Z,37.00
2019-03-23T06:25:59.911Z,35.33
2019-03-23T06:28:29.556Z,36.67
2019-03-23T06:30:59.126Z,37.97
2019-03-23T06:33:28.618Z,55.57
2019-03-23T06:35:58.158Z,37.63
2019-03-23T06:38:27.645Z,36.93
2019-03-23T06:40:57.089Z,37.40
2019-03-23T06:43:26.582Z,39.93
2019-03-23T06:45:56.090Z,37.00
2019-03-23T06:48:25.530Z,38.70
2019-03-23T06:50:55.098Z,37.27
2019-03-23T06:53:24.667Z,44.17
2019-03-23T06:55:54.141Z,42.17
2019-03-23T06:58:23.602Z,39.17
2019-03-23T07:00:53.230Z,41.27
2019-03-23T07:03:22.765Z,41.40
2019-03-23T07:05:52.455Z,40.60
2019-03-23T07:08:31.590Z,39.40
2019-03-23T07:10:53.399Z,40.93
2019-03-23T07:13:22.927Z,44.10
2019-03-23T07:15:52.524Z,45.40
2019-03-23T07:18:22.084Z,42.83
2019-03-23T07:20:51.763Z,45.40
2019-03-23T07:23:21.327Z,47.67
2019-03-23T07:25:50.974Z,43.00
2019-03-23T07:28:20.443Z,43.60
2019-03-23T07:30:50.442Z,41.20
2019-03-23T07:33:20.037Z,42.83
2019-03-23T07:35:49.953Z,40.63
2019-03-23T07:38:19.629Z,37.43
2019-03-23T07:40:49.247Z,35.53
2019-03-23T07:43:19.055Z,55.33
2019-03-23T07:45:48.595Z,35.53
2019-03-23T07:48:18.115Z,33.30
2019-03-23T07:50:47.675Z,33.93
2019-03-23T07:53:17.264Z,31.40
2019-03-23T07:55:46.860Z,34.80
2019-03-23T07:58:16.346Z,31.03
2019-03-23T08:00:45.905Z,30.17
2019-03-23T08:03:15.578Z,32.00
2019-03-23T08:05:46.007Z,27.33
2019-03-23T08:08:16.710Z,29.57
2019-03-23T08:10:46.256Z,25.60
2019-03-23T08:13:15.742Z,27.70
2019-03-23T08:15:45.327Z,27.43
2019-03-23T08:18:14.943Z,29.40
2019-03-23T08:20:44.647Z,25.90
2019-03-23T08:23:14.218Z,27.37
2019-03-23T08:25:43.806Z,29.20
2019-03-23T08:28:13.392Z,27.90
2019-03-23T08:30:43.003Z,27.63
2019-03-23T08:33:12.556Z,28.10
2019-03-23T08:35:42.102Z,31.40
2019-03-23T08:38:11.639Z,30.07
2019-03-23T08:40:41.171Z,29.27
2019-03-23T08:43:10.838Z,30.63
2019-03-23T08:45:40.307Z,34.23
2019-03-23T08:48:09.852Z,35.17
2019-03-23T08:50:39.471Z,31.43
2019-03-23T08:53:09.123Z,35.97
2019-03-23T08:55:38.799Z,35.73
2019-03-23T08:58:08.367Z,34.57
2019-03-23T09:00:37.893Z,34.13
2019-03-23T09:03:07.389Z,34.33
2019-03-23T09:05:37.004Z,35.30
2019-03-23T09:08:06.539Z,34.60
2019-03-23T09:10:36.102Z,33.77
2019-03-23T09:13:08.642Z,38.33
2019-03-23T09:15:38.420Z,38.40
2019-03-23T09:18:08.197Z,39.87
2019-03-23T09:20:37.843Z,42.47
2019-03-23T09:23:07.382Z,44.27
2019-03-23T09:25:37.209Z,43.73
2019-03-23T09:28:06.827Z,44.17
2019-03-23T09:30:36.463Z,45.57
2019-03-23T09:33:06.199Z,50.73
2019-03-23T09:35:39.391Z,53.60
2019-03-23T09:38:07.219Z,56.37
2019-03-23T09:40:36.827Z,91.17
2019-03-23T09:43:06.509Z,63.30
2019-03-23T09:45:36.211Z,65.70
2019-03-23T09:48:05.929Z,63.27
2019-03-23T09:50:35.918Z,63.37
2019-03-23T09:53:06.061Z,66.90
2019-03-23T09:55:35.567Z,65.40
2019-03-23T09:58:05.227Z,59.27
2019-03-23T10:00:34.851Z,60.33
2019-03-23T10:03:04.508Z,62.03
2019-03-23T10:05:34.235Z,62.53
2019-03-23T10:08:03.894Z,62.17
2019-03-23T10:10:33.489Z,64.17
2019-03-23T10:13:03.086Z,63.10
2019-03-23T10:15:32.736Z,59.30
2019-03-23T10:18:02.235Z,55.03
2019-03-23T10:20:32.452Z,57.40
2019-03-23T10:23:02.049Z,62.27
2019-03-23T10:25:31.766Z,60.67
2019-03-23T10:28:01.344Z,63.43
2019-03-23T10:30:31.029Z,58.77
2019-03-23T10:33:00.739Z,59.77
2019-03-23T10:35:30.321Z,68.57
2019-03-23T10:37:59.861Z,63.30
2019-03-23T10:40:32.722Z,64.87
2019-03-23T10:43:00.821Z,62.57
2019-03-23T10:45:30.399Z,60.50
2019-03-23T10:48:00.018Z,65.53
2019-03-23T10:50:29.758Z,65.27
2019-03-23T10:52:59.412Z,64.37
2019-03-23T10:55:28.950Z,68.03
2019-03-23T10:57:58.493Z,63.87
2019-03-23T11:00:28.007Z,64.00
2019-03-23T11:02:57.608Z,63.53
2019-03-23T11:05:27.142Z,61.17
2019-03-23T11:07:56.720Z,60.90
2019-03-23T11:10:26.407Z,57.63
2019-03-23T11:12:56.004Z,57.77
2019-03-23T11:15:25.505Z,58.10
2019-03-23T11:17:55.085Z,58.33
2019-03-23T11:20:24.606Z,59.73
2019-03-23T11:22:54.277Z,73.67
2019-03-23T11:25:23.786Z,57.93
2019-03-23T11:27:53.434Z,55.47
2019-03-23T11:30:22.960Z,56.30
2019-03-23T11:32:52.567Z,58.03
2019-03-23T11:35:22.206Z,54.63
2019-03-23T11:37:52.203Z,52.37
2019-03-23T11:40:21.969Z,54.50
2019-03-23T11:42:51.568Z,52.00
2019-03-23T11:45:21.396Z,53.17
2019-03-23T11:47:51.004Z,50.70
2019-03-23T11:50:20.667Z,52.17
2019-03-23T11:52:50.231Z,47.57
2019-03-23T11:55:19.986Z,51.17
2019-03-23T11:57:49.498Z,48.43
2019-03-23T12:00:19.087Z,48.33
2019-03-23T12:02:48.792Z,54.00
2019-03-23T12:05:18.504Z,49.40
2019-03-23T12:07:48.062Z,48.70
2019-03-23T12:10:17.657Z,46.73
2019-03-23T12:12:47.243Z,50.27
2019-03-23T12:15:16.846Z,51.00
2019-03-23T12:17:46.436Z,50.43
2019-03-23T12:20:16.135Z,50.13
2019-03-23T12:22:45.653Z,52.47
2019-03-23T12:25:15.300Z,51.17
2019-03-23T12:27:44.840Z,52.03
2019-03-23T12:30:15.897Z,52.27
2019-03-23T12:32:45.638Z,52.63
2019-03-23T12:35:15.312Z,57.47
2019-03-23T12:37:45.018Z,50.73
2019-03-23T12:40:14.988Z,50.20
2019-03-23T12:42:44.501Z,48.77
2019-03-23T12:45:14.870Z,52.80
2019-03-23T12:47:44.476Z,68.43
2019-03-23T12:50:14.683Z,50.10
2019-03-23T12:52:44.204Z,49.23
2019-03-23T12:55:13.870Z,49.50
2019-03-23T12:57:43.472Z,47.13
2019-03-23T13:00:13.974Z,52.37
2019-03-23T13:02:43.573Z,51.03
2019-03-23T13:05:13.494Z,51.10
2019-03-23T13:07:43.130Z,53.73
2019-03-23T13:10:12.874Z,54.20
2019-03-23T13:12:42.527Z,51.70
2019-03-23T13:15:12.275Z,51.20
2019-03-23T13:17:41.888Z,51.60
2019-03-23T13:20:12.264Z,54.63
2019-03-23T13:22:41.940Z,56.33
2019-03-23T13:25:11.538Z,55.47
2019-03-23T13:27:42.203Z,54.77
2019-03-23T13:30:13.187Z,51.97
2019-03-23T13:32:42.669Z,51.13
2019-03-23T13:35:12.598Z,51.53
2019-03-23T13:37:42.188Z,50.97
2019-03-23T13:40:11.939Z,50.77
2019-03-23T13:42:41.539Z,55.20
2019-03-23T13:45:11.412Z,49.80
2019-03-23T13:47:41.099Z,52.27
2019-03-23T13:50:11.597Z,51.10
2019-03-23T13:52:41.205Z,53.03
2019-03-23T13:55:22.774Z,51.30
2019-03-23T13:57:52.432Z,54.63
2019-03-23T14:00:21.966Z,50.10
2019-03-23T14:02:51.651Z,50.93
2019-03-23T14:05:21.254Z,49.00
2019-03-23T14:07:50.920Z,51.17
2019-03-23T14:10:20.431Z,49.03
2019-03-23T14:12:50.079Z,46.33
2019-03-23T14:15:19.660Z,52.90
2019-03-23T14:17:49.692Z,50.63
2019-03-23T14:20:19.228Z,52.47
2019-03-23T14:22:48.854Z,48.13
2019-03-23T14:25:18.608Z,46.93
2019-03-23T14:27:48.276Z,48.90
2019-03-23T14:30:17.927Z,48.17
2019-03-23T14:32:47.523Z,47.83
2019-03-23T14:35:17.007Z,49.60
2019-03-23T14:37:46.540Z,52.37
2019-03-23T14:40:16.062Z,47.20
2019-03-23T14:42:45.602Z,49.53
2019-03-23T14:45:15.170Z,45.53
2019-03-23T14:47:44.666Z,52.07
2019-03-23T14:50:14.311Z,44.23
2019-03-23T14:52:43.866Z,49.50
2019-03-23T14:55:13.500Z,48.03
2019-03-23T14:57:43.099Z,46.80
2019-03-23T15:00:13.852Z,45.93
2019-03-23T15:02:43.485Z,50.33
2019-03-23T15:05:13.157Z,43.60
2019-03-23T15:07:42.714Z,47.80
2019-03-23T15:10:12.608Z,48.23
2019-03-23T15:12:42.200Z,43.43
2019-03-23T15:15:11.828Z,49.80
2019-03-23T15:17:48.412Z,45.97
2019-03-23T15:20:12.739Z,47.40
2019-03-23T15:22:42.318Z,45.60
2019-03-23T15:25:11.870Z,47.53
2019-03-23T15:27:41.447Z,46.53
2019-03-23T15:30:11.252Z,45.43
2019-03-23T15:32:40.833Z,46.40
2019-03-23T15:35:10.487Z,43.90
2019-03-23T15:37:40.148Z,48.17
2019-03-23T15:40:09.973Z,45.40
2019-03-23T15:42:39.562Z,46.37
2019-03-23T15:45:09.639Z,45.57
2019-03-23T15:47:39.273Z,44.73
2019-03-23T15:50:09.651Z,47.33
2019-03-23T15:52:39.249Z,47.63
2019-03-23T15:55:08.886Z,47.13
2019-03-23T15:57:39.048Z,43.93
2019-03-23T16:00:10.760Z,43.03
2019-03-23T16:02:40.223Z,49.47
2019-03-23T16:05:10.771Z,44.93
2019-03-23T16:07:40.988Z,48.80
2019-03-23T16:10:11.599Z,47.43
2019-03-23T16:12:41.189Z,47.83
2019-03-23T16:15:12.186Z,46.67
2019-03-23T16:17:41.891Z,53.43
2019-03-23T16:20:12.129Z,47.83
2019-03-23T16:22:41.767Z,47.83
2019-03-23T16:25:11.621Z,41.63
2019-03-23T16:27:41.212Z,47.33
2019-03-23T16:30:11.787Z,42.17
2019-03-23T16:32:41.440Z,42.73
2019-03-23T16:35:11.918Z,86.40
2019-03-23T16:37:41.621Z,44.07
2019-03-23T16:40:11.594Z,44.23
2019-03-23T16:42:45.206Z,45.50
2019-03-23T16:45:12.597Z,43.63
2019-03-23T16:47:42.305Z,45.90
2019-03-23T16:50:12.119Z,46.23
2019-03-23T16:52:41.740Z,46.63
2019-03-23T16:55:11.780Z,43.33
2019-03-23T16:57:41.458Z,43.57
2019-03-23T17:00:11.469Z,40.93
2019-03-23T17:02:41.145Z,42.70
2019-03-23T17:05:10.781Z,48.80
2019-03-23T17:07:40.414Z,48.10
2019-03-23T17:10:11.587Z,47.03
2019-03-23T17:12:41.173Z,49.57
2019-03-23T17:15:11.919Z,51.43
2019-03-23T17:17:41.635Z,51.03
2019-03-23T17:20:11.672Z,49.77
2019-03-23T17:22:41.235Z,55.93
2019-03-23T17:25:10.922Z,53.93
2019-03-23T17:27:40.623Z,52.07
2019-03-23T17:30:11.234Z,54.17
2019-03-23T17:32:40.910Z,49.47
2019-03-23T17:35:10.521Z,52.63
2019-03-23T17:37:40.145Z,57.43
2019-03-23T17:40:10.305Z,56.57
2019-03-23T17:42:39.824Z,55.80
2019-03-23T17:45:09.701Z,53.33
2019-03-23T17:47:39.413Z,61.87
2019-03-23T17:50:09.703Z,53.77
2019-03-23T17:52:39.350Z,55.50
2019-03-23T17:55:09.318Z,55.57
2019-03-23T17:57:38.919Z,56.80
2019-03-23T18:00:09.526Z,49.33
2019-03-23T18:02:39.144Z,56.27
2019-03-23T18:05:09.262Z,57.67
2019-03-23T18:07:38.780Z,55.00
2019-03-23T18:10:09.502Z,54.90
2019-03-23T18:12:39.089Z,52.53
2019-03-23T18:15:08.978Z,58.47
2019-03-23T18:17:38.717Z,55.87
2019-03-23T18:20:08.724Z,57.10
2019-03-23T18:22:38.376Z,67.27
2019-03-23T18:25:08.427Z,56.00
2019-03-23T18:27:38.119Z,55.30
2019-03-23T18:30:17.194Z,53.30
2019-03-23T18:32:46.745Z,56.03
2019-03-23T18:35:16.193Z,55.57
2019-03-23T18:37:45.842Z,56.57
2019-03-23T18:40:16.422Z,57.70
2019-03-23T18:42:46.073Z,53.57
2019-03-23T18:45:15.655Z,55.80
2019-03-23T18:47:45.181Z,56.40
2019-03-23T18:50:14.785Z,54.33
2019-03-23T18:52:44.458Z,52.93
2019-03-23T18:55:14.091Z,53.33
2019-03-23T18:57:43.753Z,52.97
2019-03-23T19:00:15.838Z,54.43
2019-03-23T19:02:45.291Z,53.33
2019-03-23T19:05:15.083Z,52.83
2019-03-23T19:07:44.778Z,54.33
2019-03-23T19:10:14.406Z,52.83
2019-03-23T19:12:43.943Z,53.80
2019-03-23T19:15:13.590Z,56.77
2019-03-23T19:17:43.319Z,52.93
2019-03-23T19:20:13.009Z,52.00
2019-03-23T19:22:42.735Z,53.87
2019-03-23T19:25:17.210Z,56.70
2019-03-23T19:27:43.616Z,54.37
2019-03-23T19:30:14.076Z,53.80
2019-03-23T19:32:43.662Z,48.97
2019-03-23T19:35:13.235Z,54.03
2019-03-23T19:37:42.857Z,55.13
2019-03-23T19:40:12.594Z,52.27
2019-03-23T19:42:42.314Z,52.20
2019-03-23T19:45:12.181Z,53.93
2019-03-23T19:47:41.790Z,55.10
2019-03-23T19:50:11.783Z,55.77
2019-03-23T19:52:41.620Z,53.70
2019-03-23T19:55:11.794Z,50.87
2019-03-23T19:57:41.360Z,58.67
2019-03-23T20:00:13.342Z,53.23
2019-03-23T20:02:44.465Z,55.67
2019-03-23T20:05:14.653Z,51.97
2019-03-23T20:07:44.415Z,54.50
2019-03-23T20:10:14.389Z,54.73
2019-03-23T20:12:44.212Z,52.87
2019-03-23T20:15:13.846Z,49.70
2019-03-23T20:17:47.057Z,50.23
2019-03-23T20:20:17.023Z,48.20
2019-03-23T20:22:46.746Z,53.07
2019-03-23T20:25:16.483Z,50.57
2019-03-23T20:27:46.224Z,51.20
2019-03-23T20:30:16.628Z,53.97
2019-03-23T20:32:46.432Z,49.93
2019-03-23T20:35:16.187Z,51.07
2019-03-23T20:37:45.952Z,48.20
2019-03-23T20:40:15.664Z,46.17
2019-03-23T20:42:45.456Z,48.73
2019-03-23T20:45:24.261Z,47.20
2019-03-23T20:47:54.151Z,48.17
2019-03-23T20:50:23.898Z,48.03
2019-03-23T20:52:55.914Z,46.50
2019-03-23T20:55:38.917Z,42.80
2019-03-23T20:58:08.633Z,45.17
2019-03-23T21:00:38.337Z,45.07
2019-03-23T21:03:08.551Z,47.43
2019-03-23T21:05:38.244Z,45.10
2019-03-23T21:08:09.377Z,43.20
2019-03-23T21:10:39.097Z,40.63
2019-03-23T21:13:08.966Z,41.30
2019-03-23T21:15:38.726Z,42.53
2019-03-23T21:18:08.494Z,40.90
2019-03-23T21:20:38.308Z,40.03
2019-03-23T21:23:08.073Z,36.67
2019-03-23T21:25:37.919Z,37.37
2019-03-23T21:28:07.624Z,35.37
2019-03-23T21:30:37.255Z,37.40
2019-03-23T21:33:06.962Z,36.30
2019-03-23T21:35:36.670Z,29.77
2019-03-23T21:38:06.377Z,27.80
2019-03-23T21:40:35.965Z,29.23
2019-03-23T21:43:05.975Z,27.10
2019-03-23T21:45:37.720Z,31.60
2019-03-23T21:48:07.336Z,30.80
2019-03-23T21:50:46.991Z,26.90
2019-03-23T21:53:08.388Z,30.93
2019-03-23T21:55:48.093Z,25.33
2019-03-23T21:58:19.987Z,29.73
2019-03-23T22:00:51.880Z,30.83
2019-03-23T22:03:22.718Z,30.00
2019-03-23T22:05:52.387Z,27.37
2019-03-23T22:08:24.245Z,30.07
2019-03-23T22:10:58.204Z,29.07
2019-03-23T22:13:27.965Z,27.73
2019-03-23T22:15:58.566Z,29.27
2019-03-23T22:18:28.509Z,30.00
2019-03-23T22:20:59.931Z,29.37
2019-03-23T22:23:37.516Z,37.87
2019-03-23T22:26:17.209Z,34.27
2019-03-23T22:28:47.110Z,32.90
2019-03-23T22:31:16.803Z,32.27
2019-03-23T22:33:46.388Z,32.27
2019-03-23T22:36:16.721Z,28.80
2019-03-23T22:38:46.345Z,29.80
2019-03-23T22:41:16.063Z,31.03
2019-03-23T22:43:45.698Z,31.63
2019-03-23T22:46:15.379Z,28.40
2019-03-23T22:48:46.038Z,29.30
2019-03-23T22:51:15.653Z,29.47
2019-03-23T22:53:45.489Z,26.70
2019-03-23T22:56:15.282Z,29.63
2019-03-23T22:58:45.877Z,30.10
2019-03-23T23:01:16.381Z,30.33
2019-03-23T23:03:46.147Z,26.10
2019-03-23T23:06:15.807Z,29.50
2019-03-23T23:08:45.828Z,30.90
2019-03-23T23:11:15.558Z,29.40
2019-03-23T23:13:48.375Z,28.50
2019-03-23T23:16:18.321Z,29.77
2019-03-23T23:18:48.035Z,34.10
2019-03-23T23:21:17.891Z,29.93
2019-03-23T23:23:47.550Z,34.57
2019-03-23T23:26:17.176Z,32.43
2019-03-23T23:29:05.573Z,31.07
2019-03-23T23:31:35.245Z,30.27
2019-03-23T23:34:04.927Z,33.10
2019-03-23T23:36:34.742Z,33.37
2019-03-23T23:39:06.490Z,28.67
2019-03-23T23:41:36.334Z,32.83
2019-03-23T23:44:06.058Z,29.63
2019-03-23T23:46:35.652Z,31.03
2019-03-23T23:49:05.170Z,30.77
2019-03-23T23:51:34.692Z,30.10
2019-03-23T23:54:04.325Z,34.00
2019-03-23T23:56:33.983Z,31.07
2019-03-23T23:59:03.645Z,28.57
